Главная страница
METAR-TAF:

METAR-TAF

Аэропорты :

Арвидсъяур, Швеция

широта: 65-35-25N, долгота: 019-16-55E, высота над уровнем моря: 379 м

Текущие метеонаблюдения

Эта сводка был подготовлена 20 минут назад, в 11:50 UTC
Ветер 16 Узел от западно-северо-западный
Температура 17°C
Влажность 42%
Давление 1021 hPa
Видимость 10 км и более
Нет облачности ниже 1500 м, и нет кучево-дождевой облачности

METAR: ESNX 091150Z 30016KT CAVOK 17/04 Q1021

Время: 14:10 (12:10 UTC)

Прогноз

Эта сводка был подготовлена 40 минут назад, в 11:30 UTC
Прогноз действительный с 09-го 12 UTC до 09-го 15 UTC
Ветер 18 Узел от западно-северо-западный
Видимость 10 км и более
Нет облачности ниже 1500 м, и нет кучево-дождевой облачности

TAF: ESNX 091130Z 0912/0915 30018KT CAVOK

Метеонаблюдения и прогнозы для более 4000 аэропортов (сводки METAR и TAF).

Имеющиеся станции представлены на карте желтыми и красными точками.

Чтобы увидеть название станции, наведите на нее мышь.

Затем щелкните, чтобы увидеть метеонаблюдения и метеопрогнозы.

Управление картой: чтобы увеличить масштаб, щелкните зеленые кнопки с черным крестиком; чтобы уменьшить масштаб, щелкните зеленую кнопку с тире; для просмотра соседних карт щелкайте зеленые стрелки.


METAR-TAF: